KGS weather

Kos Airport
Kos Island, Dodecanese, Greece

Public forecast

Using degrees Celsius for public forecast. Weather courtesy of forecast.io.

METAR (pilot weather report)

Retrieved 2019/02/16 04:20 UTC (35 minutes ago):

LGKO 160420Z /////KT 9999 FEW020TCU BKN025 09/06 Q1014

TAF (pilot weather forecast)

Forecast is more than 12 hours old.

Retrieved 2019/02/15 00:15 UTC (1 day ago):

TAF LGKO 152300Z 1600/1624 01015KT 9999 FEW025 PROB40 TEMPO 1600/1609 5000 RA SCT015 BKN020 PROB30 TEMPO 1600/1604 4000 TSRA SCT010 FEW018CB BKN020 BECMG 1610/1612 03005KT